Time;durP1;ratioP1;P1;durP2;ratioP2;P2;SDS_P1;SDS_P2;PMS_P1;PMS_P2;Temp;Humidity;BMP_temperature;BMP_pressure;BME280_temperature;BME280_humidity;BME280_pressure;Samples;Min_cycle;Max_cycle;Signal;HPM_P1;HPM_P2
2021/04/16 00:00:20;;;;;;;1.83;1.63;;;6.00;87.10;;;;;;5044034;28;20406;-65
2021/04/16 00:02:46;;;;;;;2.57;1.60;;;6.00;86.50;;;;;;5044598;28;20457;-65
2021/04/16 00:05:12;;;;;;;1.90;1.53;;;6.00;88.40;;;;;;5047454;28;20527;-66
2021/04/16 00:07:38;;;;;;;3.13;1.77;;;6.00;85.90;;;;;;5046132;28;20198;-67
2021/04/16 00:10:14;;;;;;;2.03;1.60;;;5.90;87.40;;;;;;5048901;28;20457;-66
2021/04/16 00:12:40;;;;;;;3.50;1.80;;;6.00;89.00;;;;;;5045531;28;20628;-67
2021/04/16 00:15:17;;;;;;;2.23;1.73;;;6.00;88.80;;;;;;5025048;28;20517;-66
2021/04/16 00:17:43;;;;;;;2.37;2.07;;;6.00;86.90;;;;;;5048634;28;20175;-66
2021/04/16 00:20:11;;;;;;;2.87;1.67;;;5.90;88.80;;;;;;5046582;28;20860;-67
2021/04/16 00:22:36;;;;;;;1.70;1.60;;;6.00;89.10;;;;;;5045603;28;20413;-67
2021/04/16 00:25:05;;;;;;;2.00;1.63;;;6.00;89.70;;;;;;5049824;28;20425;-68
2021/04/16 00:27:30;;;;;;;3.47;2.10;;;5.90;88.50;;;;;;5046694;28;20257;-66
2021/04/16 00:29:56;;;;;;;2.47;1.77;;;5.90;88.30;;;;;;5046290;28;20525;-67
2021/04/16 00:32:22;;;;;;;3.30;2.07;;;5.90;90.00;;;;;;5046387;28;20292;-67
2021/04/16 00:34:47;;;;;;;4.33;2.13;;;5.90;89.10;;;;;;5045653;28;20179;-65
2021/04/16 00:37:13;;;;;;;2.20;1.83;;;5.90;89.20;;;;;;5049666;28;20179;-65
2021/04/16 00:39:39;;;;;;;3.00;2.20;;;5.80;86.70;;;;;;5044324;28;20182;-67
2021/04/16 00:42:04;;;;;;;2.87;2.10;;;5.80;90.70;;;;;;5046495;28;20171;-67
2021/04/16 00:44:30;;;;;;;2.50;1.90;;;5.80;90.10;;;;;;5045246;28;20183;-66
2021/04/16 00:47:02;;;;;;;3.10;2.07;;;5.80;90.30;;;;;;5049740;28;20266;-66
2021/04/16 00:49:43;;;;;;;3.00;2.30;;;5.70;90.90;;;;;;5044877;28;20179;-66
2021/04/16 00:52:09;;;;;;;4.07;2.03;;;5.70;88.50;;;;;;5043394;28;20476;-67
2021/04/16 00:54:38;;;;;;;3.57;2.00;;;5.70;91.00;;;;;;5043278;28;20469;-66
2021/04/16 00:57:06;;;;;;;1.70;1.60;;;5.70;90.50;;;;;;5049183;28;20421;-67
2021/04/16 00:59:33;;;;;;;3.73;1.97;;;5.70;90.90;;;;;;5047413;28;20471;-67
2021/04/16 01:02:02;;;;;;;2.73;2.17;;;5.70;90.80;;;;;;5045474;28;20422;-67
2021/04/16 01:04:29;;;;;;;2.27;1.87;;;5.80;91.30;;;;;;5042429;28;20437;-66
2021/04/16 01:06:58;;;;;;;2.63;1.83;;;5.80;90.20;;;;;;5047937;28;20443;-65
2021/04/16 01:09:24;;;;;;;2.00;1.77;;;5.70;91.10;;;;;;5032937;28;20904;-66
2021/04/16 01:11:49;;;;;;;3.10;1.90;;;5.80;91.10;;;;;;5047961;28;20520;-67
2021/04/16 01:14:17;;;;;;;3.13;1.87;;;5.70;91.60;;;;;;5047276;28;20548;-67
2021/04/16 01:16:43;;;;;;;2.10;1.90;;;5.80;91.30;;;;;;5047026;28;20176;-66
2021/04/16 01:19:25;;;;;;;4.43;2.67;;;5.70;91.10;;;;;;5044249;28;20442;-66
2021/04/16 01:22:00;;;;;;;3.20;1.70;;;5.80;91.00;;;;;;5045904;28;20421;-66
2021/04/16 01:24:28;;;;;;;3.00;1.87;;;5.70;90.80;;;;;;5046324;28;21021;-67
2021/04/16 01:26:54;;;;;;;2.10;1.90;;;5.80;91.30;;;;;;5049214;28;20788;-66
2021/04/16 01:29:21;;;;;;;2.93;2.10;;;5.80;91.10;;;;;;5021783;28;20453;-67
2021/04/16 01:31:51;;;;;;;4.73;2.43;;;5.80;91.00;;;;;;5044044;28;20461;-67
2021/04/16 01:34:25;;;;;;;2.30;1.83;;;5.80;91.40;;;;;;5049777;28;20421;-65
2021/04/16 01:36:52;;;;;;;2.60;2.10;;;5.70;91.50;;;;;;5048022;28;20514;-67
2021/04/16 01:39:19;;;;;;;3.20;2.00;;;5.70;91.00;;;;;;5029675;28;20430;-66
2021/04/16 01:41:45;;;;;;;3.03;1.90;;;5.70;90.80;;;;;;5049915;28;20913;-66
2021/04/16 01:44:14;;;;;;;3.77;2.00;;;5.80;91.30;;;;;;5048308;28;20516;-65
2021/04/16 01:47:00;;;;;;;4.40;2.03;;;5.70;91.10;;;;;;5045813;28;20180;-67
2021/04/16 01:49:30;;;;;;;4.83;2.30;;;5.70;90.60;;;;;;5054132;28;20467;-66
2021/04/16 01:51:56;;;;;;;2.97;1.77;;;5.70;91.70;;;;;;5047871;28;20488;-68
2021/04/16 01:54:29;;;;;;;3.03;2.13;;;5.70;91.60;;;;;;5045263;28;20768;-65
2021/04/16 01:56:58;;;;;;;2.50;2.30;;;5.70;91.60;;;;;;5050965;28;20504;-66
2021/04/16 01:59:30;;;;;;;3.00;2.17;;;5.70;91.40;;;;;;5048554;28;20418;-66
2021/04/16 02:01:57;;;;;;;3.47;2.17;;;5.70;91.60;;;;;;5050319;28;20425;-67
2021/04/16 02:04:23;;;;;;;2.50;2.20;;;5.70;91.90;;;;;;5050295;28;20508;-66
2021/04/16 02:06:50;;;;;;;2.57;1.97;;;5.60;91.80;;;;;;5047156;28;20823;-67
2021/04/16 02:09:20;;;;;;;3.00;2.50;;;5.60;91.20;;;;;;5048985;28;20792;-68
2021/04/16 02:11:46;;;;;;;2.70;1.80;;;5.60;91.70;;;;;;5050897;28;20485;-67
2021/04/16 02:14:13;;;;;;;4.40;2.60;;;5.60;91.80;;;;;;5048979;28;20438;-66
2021/04/16 02:16:40;;;;;;;4.47;2.90;;;5.50;92.30;;;;;;5050915;28;20167;-68
2021/04/16 02:19:06;;;;;;;3.33;2.70;;;5.50;92.40;;;;;;5047869;28;20414;-67
2021/04/16 02:21:32;;;;;;;3.50;2.80;;;5.50;92.80;;;;;;5034171;28;20433;-66
2021/04/16 02:23:57;;;;;;;2.67;2.17;;;5.50;92.60;;;;;;5033729;28;20341;-68
2021/04/16 02:26:23;;;;;;;2.63;2.27;;;5.50;92.90;;;;;;5033654;28;20176;-68
2021/04/16 02:28:49;;;;;;;2.47;2.00;;;5.50;93.20;;;;;;5033606;28;20176;-67
2021/04/16 02:31:14;;;;;;;3.27;2.40;;;5.50;92.60;;;;;;5033359;28;20176;-65
2021/04/16 02:33:42;;;;;;;5.10;2.60;;;5.50;92.40;;;;;;5033505;28;20225;-68
2021/04/16 02:36:08;;;;;;;3.33;2.40;;;5.40;93.40;;;;;;5033625;28;20266;-67
2021/04/16 02:38:34;;;;;;;2.87;2.53;;;5.40;93.00;;;;;;5033512;28;20407;-66
2021/04/16 02:41:00;;;;;;;2.60;2.27;;;5.40;92.60;;;;;;5033526;28;20722;-67
2021/04/16 02:43:25;;;;;;;3.27;2.60;;;5.40;93.40;;;;;;5032991;28;20168;-66
2021/04/16 02:45:51;;;;;;;2.97;2.20;;;5.40;94.20;;;;;;5032875;28;20175;-66
2021/04/16 02:48:18;;;;;;;2.57;2.33;;;5.40;93.80;;;;;;5033319;28;20568;-67
2021/04/16 02:50:43;;;;;;;3.97;2.53;;;5.30;94.10;;;;;;5033442;28;20211;-66
2021/04/16 02:53:09;;;;;;;3.37;2.50;;;5.30;94.10;;;;;;5033271;28;20559;-66
2021/04/16 02:55:35;;;;;;;3.37;2.33;;;5.20;94.70;;;;;;5033663;28;20622;-68
2021/04/16 02:58:00;;;;;;;3.50;2.50;;;5.20;94.50;;;;;;5033172;28;20258;-67
2021/04/16 03:00:28;;;;;;;2.83;2.47;;;5.10;94.60;;;;;;5033389;28;20176;-65
2021/04/16 03:02:55;;;;;;;3.27;2.50;;;5.20;94.60;;;;;;5033083;28;20188;-66
2021/04/16 03:05:27;;;;;;;2.93;2.27;;;5.20;95.50;;;;;;5033196;28;20942;-67
2021/04/16 03:07:54;;;;;;;5.43;2.70;;;5.20;95.30;;;;;;5030907;28;20418;-68
2021/04/16 03:10:23;;;;;;;3.77;2.47;;;5.10;94.10;;;;;;5032798;28;20461;-67
2021/04/16 03:12:49;;;;;;;3.27;2.77;;;5.10;95.30;;;;;;5032952;28;20454;-66
2021/04/16 03:15:15;;;;;;;5.20;2.67;;;5.20;96.30;;;;;;5032801;28;20410;-66
2021/04/16 03:17:41;;;;;;;2.90;2.53;;;5.10;95.10;;;;;;5033105;28;20263;-66
2021/04/16 03:20:08;;;;;;;4.50;2.93;;;5.00;95.70;;;;;;5039851;28;20536;-67
2021/04/16 03:22:34;;;;;;;5.00;2.70;;;5.10;95.90;;;;;;5048421;28;20211;-66
2021/04/16 03:24:59;;;;;;;2.93;2.47;;;5.10;96.30;;;;;;5047776;28;20919;-66
2021/04/16 03:27:25;;;;;;;3.97;3.03;;;5.00;96.50;;;;;;5052666;28;20198;-67
2021/04/16 03:29:51;;;;;;;6.17;3.20;;;5.10;96.10;;;;;;5051178;28;20233;-68
2021/04/16 03:32:17;;;;;;;6.00;3.00;;;5.10;96.90;;;;;;5050720;28;20207;-67
2021/04/16 03:34:42;;;;;;;4.40;2.90;;;5.10;96.20;;;;;;5046688;28;20189;-67
2021/04/16 03:37:08;;;;;;;4.27;3.80;;;5.10;97.00;;;;;;5046628;28;20228;-66
2021/04/16 03:39:33;;;;;;;5.03;3.60;;;5.10;98.00;;;;;;5047351;28;20175;-65
2021/04/16 03:41:59;;;;;;;5.10;3.73;;;5.10;98.40;;;;;;5048769;28;20561;-66
2021/04/16 03:44:24;;;;;;;6.80;3.30;;;5.20;97.40;;;;;;5049256;28;20179;-67
2021/04/16 03:46:50;;;;;;;5.03;3.77;;;5.10;97.00;;;;;;5045181;28;20646;-68
2021/04/16 03:49:16;;;;;;;6.97;4.60;;;5.10;98.20;;;;;;5050595;28;20255;-66
2021/04/16 03:51:56;;;;;;;4.90;4.40;;;5.10;98.30;;;;;;5046544;28;20203;-66
2021/04/16 03:54:23;;;;;;;5.53;4.30;;;5.10;97.70;;;;;;5050332;28;20417;-67
2021/04/16 03:56:49;;;;;;;7.60;4.73;;;5.10;98.40;;;;;;5049039;28;20411;-65
2021/04/16 03:59:17;;;;;;;6.90;4.60;;;5.00;98.10;;;;;;5050062;28;20440;-67
2021/04/16 04:01:43;;;;;;;5.47;4.53;;;5.00;99.10;;;;;;5017017;28;20458;-66
2021/04/16 04:04:08;;;;;;;6.90;4.60;;;5.00;99.50;;;;;;5049172;28;20448;-66
2021/04/16 04:06:34;;;;;;;5.07;4.37;;;5.00;99.90;;;;;;5048229;28;20626;-66
2021/04/16 04:08:59;;;;;;;5.23;4.73;;;5.00;99.90;;;;;;5031522;28;20760;-67
2021/04/16 04:11:25;;;;;;;7.40;5.47;;;5.20;99.90;;;;;;5048712;28;20183;-65
2021/04/16 04:13:51;;;;;;;7.43;5.23;;;5.20;99.90;;;;;;5048921;28;20186;-65
2021/04/16 04:16:16;;;;;;;6.43;4.97;;;5.20;98.50;;;;;;5045515;28;20219;-67
2021/04/16 04:18:42;;;;;;;6.77;4.97;;;5.30;97.90;;;;;;5044524;28;20171;-67
2021/04/16 04:21:08;;;;;;;8.43;5.40;;;5.20;98.20;;;;;;5050984;28;20272;-66
2021/04/16 04:23:33;;;;;;;6.27;4.63;;;5.20;99.60;;;;;;5048191;28;20214;-66
2021/04/16 04:25:59;;;;;;;7.80;5.17;;;5.00;98.50;;;;;;5023844;28;20198;-65
2021/04/16 04:28:25;;;;;;;5.83;5.00;;;5.00;99.60;;;;;;5051469;28;20549;-67
2021/04/16 04:30:51;;;;;;;6.73;5.10;;;5.00;99.60;;;;;;5050064;28;20414;-67
2021/04/16 04:33:16;;;;;;;7.77;4.63;;;5.00;99.20;;;;;;5043591;28;20203;-67
2021/04/16 04:35:42;;;;;;;7.87;5.17;;;5.00;99.60;;;;;;5047177;28;20201;-66
2021/04/16 04:38:08;;;;;;;7.13;5.10;;;5.00;99.90;;;;;;5049755;28;20223;-67
2021/04/16 04:40:35;;;;;;;9.90;6.33;;;5.00;99.30;;;;;;5045044;28;20171;-67
2021/04/16 04:43:01;;;;;;;6.63;5.13;;;5.00;99.90;;;;;;5045759;28;20414;-66
2021/04/16 04:45:26;;;;;;;8.50;5.67;;;5.00;99.90;;;;;;5044697;28;20417;-68
2021/04/16 04:47:53;;;;;;;7.23;5.20;;;5.00;99.90;;;;;;5046643;28;20178;-67
2021/04/16 04:50:20;;;;;;;9.03;5.30;;;5.10;99.70;;;;;;5047877;28;20187;-67
2021/04/16 04:52:47;;;;;;;9.90;5.70;;;5.10;99.80;;;;;;5046465;28;20942;-66
2021/04/16 04:55:16;;;;;;;8.60;5.37;;;5.10;99.90;;;;;;5049674;28;20514;-67
2021/04/16 04:57:42;;;;;;;9.13;6.23;;;5.20;99.60;;;;;;5049657;28;20802;-66
2021/04/16 05:00:11;;;;;;;6.47;5.70;;;5.30;99.80;;;;;;5028817;28;20429;-67
2021/04/16 05:02:37;;;;;;;6.53;5.73;;;5.30;99.80;;;;;;5047969;28;20542;-65
2021/04/16 05:05:04;;;;;;;7.43;6.20;;;5.30;99.90;;;;;;5049074;28;20414;-67
2021/04/16 05:07:29;;;;;;;7.23;5.67;;;5.30;99.20;;;;;;5026626;28;20517;-66
2021/04/16 05:09:55;;;;;;;7.70;6.20;;;5.30;99.10;;;;;;5051977;28;20827;-66
2021/04/16 05:12:20;;;;;;;8.53;6.17;;;5.30;99.70;;;;;;5052073;28;20191;-68
2021/04/16 05:14:46;;;;;;;8.27;6.10;;;5.40;99.50;;;;;;5054691;28;20170;-66
2021/04/16 05:17:12;;;;;;;6.83;6.00;;;5.40;99.90;;;;;;5055244;28;20179;-66
2021/04/16 05:19:37;;;;;;;10.77;6.03;;;5.30;99.90;;;;;;5055360;28;20187;-68
2021/04/16 05:22:05;;;;;;;7.03;6.30;;;5.30;99.90;;;;;;5054045;28;20182;-65
2021/04/16 05:24:34;;;;;;;11.17;6.33;;;5.30;99.90;;;;;;5051016;28;20213;-66
2021/04/16 05:27:02;;;;;;;7.73;5.83;;;5.30;99.90;;;;;;5054221;28;20414;-65
2021/04/16 05:29:28;;;;;;;6.97;5.70;;;5.30;99.90;;;;;;5052687;28;20508;-66
2021/04/16 05:31:55;;;;;;;8.63;5.70;;;5.30;99.50;;;;;;5053902;28;21089;-66
2021/04/16 05:34:27;;;;;;;13.67;9.27;;;5.30;99.90;;;;;;5054016;28;20179;-65
2021/04/16 05:36:53;;;;;;;9.33;6.20;;;5.40;99.90;;;;;;5052012;28;20891;-67
2021/04/16 05:39:19;;;;;;;9.27;6.27;;;5.50;99.90;;;;;;5052934;28;20413;-67
2021/04/16 05:41:45;;;;;;;9.00;6.33;;;5.60;99.00;;;;;;5052578;28;20175;-67
2021/04/16 05:44:11;;;;;;;9.60;6.27;;;5.60;98.70;;;;;;5049420;28;20175;-66
2021/04/16 05:46:37;;;;;;;7.83;6.17;;;5.60;98.00;;;;;;5052458;28;20409;-66
2021/04/16 05:49:04;;;;;;;7.50;5.80;;;5.70;97.60;;;;;;5053563;28;20175;-67
2021/04/16 05:51:30;;;;;;;7.87;6.30;;;5.70;98.10;;;;;;5053247;28;20502;-68
2021/04/16 05:53:55;;;;;;;8.40;6.63;;;5.70;98.10;;;;;;5053486;28;20417;-68
2021/04/16 05:56:21;;;;;;;10.03;5.93;;;5.70;98.30;;;;;;5035993;28;20414;-66
2021/04/16 05:58:47;;;;;;;8.83;6.67;;;5.80;99.00;;;;;;5052075;28;20657;-66
2021/04/16 06:01:12;;;;;;;11.00;7.37;;;5.80;98.50;;;;;;5048767;28;20578;-65
2021/04/16 06:03:41;;;;;;;13.33;7.13;;;5.90;98.50;;;;;;5052071;28;20171;-67
2021/04/16 06:06:07;;;;;;;10.30;8.50;;;5.90;97.60;;;;;;5050188;28;20229;-66
2021/04/16 06:08:32;;;;;;;12.40;8.17;;;6.00;98.50;;;;;;5051879;28;20426;-67
2021/04/16 06:10:59;;;;;;;10.27;7.17;;;6.00;97.90;;;;;;5049803;28;20175;-67
2021/04/16 06:13:25;;;;;;;8.53;6.60;;;6.00;98.30;;;;;;5030433;28;20196;-67
2021/04/16 06:15:52;;;;;;;10.00;6.50;;;6.00;99.30;;;;;;5052796;28;20410;-67
2021/04/16 06:18:21;;;;;;;7.27;5.87;;;6.00;97.60;;;;;;5045993;28;20305;-67
2021/04/16 06:20:48;;;;;;;7.77;6.57;;;6.00;98.90;;;;;;5051668;28;20448;-65
2021/04/16 06:23:13;;;;;;;7.73;5.80;;;6.00;98.50;;;;;;5050653;28;20422;-68
2021/04/16 06:25:39;;;;;;;8.87;6.10;;;6.10;97.80;;;;;;5050918;28;20938;-68
2021/04/16 06:28:05;;;;;;;7.90;6.17;;;6.10;97.70;;;;;;5052512;28;20179;-66
2021/04/16 06:30:32;;;;;;;8.97;7.13;;;6.00;99.60;;;;;;5047501;28;20176;-68
2021/04/16 06:33:13;;;;;;;6.97;5.73;;;6.00;98.80;;;;;;5028040;28;20465;-67
2021/04/16 06:35:42;;;;;;;8.47;5.73;;;6.00;98.00;;;;;;5051118;28;20440;-68
2021/04/16 06:38:09;;;;;;;7.87;5.87;;;6.00;98.40;;;;;;5048284;28;20489;-66
2021/04/16 06:40:35;;;;;;;6.27;5.67;;;5.90;99.50;;;;;;5043925;28;20767;-67
2021/04/16 06:43:00;;;;;;;7.00;5.63;;;6.10;99.10;;;;;;5047066;28;20445;-67
2021/04/16 06:45:32;;;;;;;9.17;5.63;;;6.00;98.60;;;;;;5050907;28;20457;-68
2021/04/16 06:48:01;;;;;;;8.23;6.00;;;6.00;99.50;;;;;;5052278;28;20175;-67
2021/04/16 06:50:36;;;;;;;7.93;5.93;;;6.00;99.40;;;;;;5051007;28;20847;-67
2021/04/16 06:53:26;;;;;;;6.87;6.17;;;6.00;99.50;;;;;;5052491;28;20448;-67
2021/04/16 06:56:12;;;;;;;7.33;5.33;;;6.00;99.40;;;;;;5052431;28;20414;-66
2021/04/16 06:59:13;;;;;;;8.33;5.47;;;6.10;99.90;;;;;;5052213;28;20402;-66
2021/04/16 07:01:44;;;;;;;7.73;5.47;;;6.10;99.20;;;;;;5021063;28;20476;-68
2021/04/16 07:04:34;;;;;;;6.83;5.77;;;6.10;99.50;;;;;;5052094;28;20926;-66
2021/04/16 07:07:04;;;;;;;10.33;5.97;;;6.20;99.80;;;;;;5017396;28;20454;-69
2021/04/16 07:09:34;;;;;;;11.53;6.10;;;6.20;99.70;;;;;;5052346;28;20410;-67
2021/04/16 07:12:14;;;;;;;6.37;5.07;;;6.20;98.50;;;;;;5051591;28;20456;-66
2021/04/16 07:14:50;;;;;;;6.37;5.43;;;6.20;99.40;;;;;;5033966;28;20422;-67
2021/04/16 07:17:21;;;;;;;6.73;5.90;;;6.20;98.70;;;;;;5050677;28;20437;-70
2021/04/16 07:19:47;;;;;;;6.30;4.93;;;6.20;99.20;;;;;;5052879;28;20421;-69
2021/04/16 07:22:40;;;;;;;6.10;4.73;;;6.30;99.90;;;;;;5051654;28;20422;-67
2021/04/16 07:25:36;;;;;;;7.60;5.73;;;6.30;98.00;;;;;;5048591;28;20186;-67
2021/04/16 07:28:33;;;;;;;7.13;5.30;;;6.40;99.10;;;;;;5050109;28;20409;-68
2021/04/16 07:30:59;;;;;;;7.07;5.10;;;6.50;98.80;;;;;;5050602;28;20410;-68
2021/04/16 07:33:32;;;;;;;8.53;5.00;;;6.60;97.90;;;;;;5051532;28;20503;-68
2021/04/16 07:36:20;;;;;;;6.03;5.43;;;6.60;97.70;;;;;;5050075;28;20179;-66
2021/04/16 07:39:13;;;;;;;9.13;4.93;;;6.60;96.20;;;;;;5048724;28;20948;-69
2021/04/16 07:41:48;;;;;;;6.17;4.83;;;6.70;96.80;;;;;;5051043;28;20402;-68
2021/04/16 07:44:18;;;;;;;7.23;5.27;;;6.80;96.20;;;;;;5046363;28;20907;-68
2021/04/16 07:46:49;;;;;;;7.97;5.20;;;6.90;95.80;;;;;;5048878;28;20411;-69
2021/04/16 07:49:37;;;;;;;5.57;4.40;;;7.00;95.40;;;;;;5051276;28;20410;-68
2021/04/16 07:52:25;;;;;;;6.83;4.80;;;7.20;95.20;;;;;;5048757;28;20556;-67
2021/04/16 07:55:05;;;;;;;5.73;4.60;;;7.20;92.90;;;;;;5045848;28;20510;-67
2021/04/16 07:57:33;;;;;;;5.63;4.80;;;7.30;93.40;;;;;;5047996;28;20423;-67
2021/04/16 08:00:03;;;;;;;5.83;5.00;;;7.40;93.00;;;;;;5049875;28;20406;-67
2021/04/16 08:02:40;;;;;;;5.97;4.40;;;7.40;93.20;;;;;;5048028;28;20431;-68
2021/04/16 08:05:32;;;;;;;7.33;4.70;;;7.40;93.20;;;;;;5049825;28;20975;-68
2021/04/16 08:08:16;;;;;;;7.07;5.40;;;7.50;92.70;;;;;;5050596;28;20418;-67
2021/04/16 08:10:46;;;;;;;10.60;5.20;;;7.60;92.50;;;;;;5050693;28;20406;-66
2021/04/16 08:13:24;;;;;;;9.57;5.10;;;7.60;91.60;;;;;;5050631;28;20460;-65
2021/04/16 08:15:50;;;;;;;5.80;5.20;;;7.60;92.60;;;;;;5040592;28;20428;-66
2021/04/16 08:18:19;;;;;;;6.43;4.90;;;7.60;91.90;;;;;;5047833;28;20410;-66
2021/04/16 08:21:02;;;;;;;6.30;5.30;;;7.60;92.10;;;;;;5049064;28;20450;-67
2021/04/16 08:23:56;;;;;;;7.90;4.90;;;7.70;92.20;;;;;;5048182;28;20417;-67
2021/04/16 08:26:25;;;;;;;6.73;4.83;;;7.50;91.20;;;;;;5050642;28;20508;-67
2021/04/16 08:29:00;;;;;;;6.57;5.20;;;7.50;91.50;;;;;;5050892;28;20426;-65
2021/04/16 08:31:59;;;;;;;7.43;4.73;;;7.50;92.10;;;;;;5049368;28;20409;-67
2021/04/16 08:34:33;;;;;;;6.43;4.67;;;7.50;90.70;;;;;;5011287;28;20508;-68
2021/04/16 08:37:00;;;;;;;7.03;5.07;;;7.40;90.90;;;;;;5049139;28;20413;-65
2021/04/16 08:39:41;;;;;;;6.40;4.97;;;7.50;90.20;;;;;;5048040;28;20447;-67
2021/04/16 08:42:39;;;;;;;6.70;5.23;;;7.50;90.30;;;;;;5031575;28;20520;-68
2021/04/16 08:45:09;;;;;;;8.13;4.87;;;7.70;90.70;;;;;;5046369;28;20425;-68
2021/04/16 08:47:57;;;;;;;8.67;5.80;;;7.70;90.50;;;;;;5046680;28;20484;-69
2021/04/16 08:50:26;;;;;;;6.00;4.77;;;7.90;88.40;;;;;;5050378;28;20853;-66
2021/04/16 08:52:58;;;;;;;6.47;4.47;;;7.90;88.00;;;;;;5048774;28;20460;-66
2021/04/16 08:55:31;;;;;;;7.67;4.60;;;8.00;88.80;;;;;;5048744;28;20790;-69
2021/04/16 08:58:02;;;;;;;5.33;4.10;;;8.00;82.80;;;;;;5050679;28;20416;-66
2021/04/16 09:00:47;;;;;;;5.63;4.57;;;8.00;84.00;;;;;;5032317;28;20397;-68
2021/04/16 09:03:22;;;;;;;6.17;4.57;;;8.10;85.00;;;;;;5043755;28;20413;-67
2021/04/16 09:06:00;;;;;;;4.70;4.30;;;8.10;86.40;;;;;;5050548;28;20419;-67
2021/04/16 09:08:42;;;;;;;6.33;4.20;;;8.10;82.80;;;;;;5048043;28;20405;-67
2021/04/16 09:11:11;;;;;;;6.60;4.30;;;8.20;81.40;;;;;;5048708;28;20422;-68
2021/04/16 09:13:36;;;;;;;7.13;4.83;;;8.20;81.60;;;;;;5048539;28;20464;-67
2021/04/16 09:16:20;;;;;;;5.90;4.20;;;8.30;81.10;;;;;;5050392;28;20883;-67
2021/04/16 09:18:48;;;;;;;6.57;3.90;;;8.30;80.90;;;;;;5050038;28;20183;-67
2021/04/16 09:21:23;;;;;;;5.13;3.73;;;8.20;78.60;;;;;;5049109;28;20449;-67
2021/04/16 09:23:48;;;;;;;6.77;4.93;;;8.20;80.40;;;;;;5049891;28;20903;-65
2021/04/16 09:26:48;;;;;;;7.77;7.07;;;8.20;80.40;;;;;;5050081;28;20467;-65
2021/04/16 09:29:25;;;;;;;9.13;6.50;;;8.20;79.00;;;;;;5047841;28;20178;-66
2021/04/16 09:31:54;;;;;;;5.37;4.47;;;8.20;80.60;;;;;;5046873;28;20522;-66
2021/04/16 09:34:23;;;;;;;5.37;4.70;;;8.30;80.30;;;;;;5050260;28;20422;-68
2021/04/16 09:37:11;;;;;;;5.47;4.20;;;8.30;78.90;;;;;;5048854;28;20420;-67
2021/04/16 09:39:39;;;;;;;5.97;4.03;;;8.30;80.20;;;;;;5047733;28;20777;-67
2021/04/16 09:42:27;;;;;;;5.83;4.33;;;8.20;77.90;;;;;;5050038;28;20430;-67
2021/04/16 09:44:56;;;;;;;6.00;4.37;;;8.10;80.80;;;;;;5049810;28;20769;-68
2021/04/16 09:47:43;;;;;;;6.27;4.20;;;8.10;81.10;;;;;;5050175;28;20922;-67
2021/04/16 09:50:36;;;;;;;6.37;4.00;;;8.10;81.20;;;;;;5049714;28;20463;-68
2021/04/16 09:53:19;;;;;;;4.50;4.10;;;8.00;81.20;;;;;;5047370;28;20527;-68
2021/04/16 09:56:00;;;;;;;5.30;3.90;;;7.90;82.20;;;;;;5053267;28;20421;-68
2021/04/16 09:58:32;;;;;;;4.90;3.83;;;7.90;81.40;;;;;;5053789;28;20911;-68
2021/04/16 10:01:01;;;;;;;4.73;4.27;;;7.90;81.20;;;;;;5051758;28;20414;-67
2021/04/16 10:03:32;;;;;;;9.93;4.20;;;7.80;80.90;;;;;;5053594;28;20413;-65
2021/04/16 10:05:59;;;;;;;5.10;4.23;;;7.70;81.90;;;;;;5053827;28;20482;-67
2021/04/16 10:08:30;;;;;;;4.33;3.90;;;7.90;82.60;;;;;;5053108;28;20441;-67
2021/04/16 10:11:05;;;;;;;5.07;4.57;;;7.80;82.40;;;;;;5051905;28;20421;-66
2021/04/16 10:13:34;;;;;;;4.93;4.43;;;7.90;82.90;;;;;;5030951;28;20496;-65
2021/04/16 10:16:01;;;;;;;9.90;4.80;;;7.90;81.20;;;;;;5053649;28;20418;-67
2021/04/16 10:18:35;;;;;;;5.43;4.77;;;7.80;82.80;;;;;;5053176;28;20418;-67
2021/04/16 10:21:09;;;;;;;6.13;4.60;;;7.80;83.00;;;;;;5051372;28;20442;-66
2021/04/16 10:23:37;;;;;;;6.37;4.60;;;7.80;83.30;;;;;;5053177;28;20428;-67
2021/04/16 12:39:03;;;;;;;5.90;3.43;;;9.40;70.70;;;;;;5050711;28;20451;-67
2021/04/16 12:41:37;;;;;;;4.80;3.20;;;9.30;70.70;;;;;;5049108;28;20501;-69
2021/04/16 12:44:03;;;;;;;5.60;3.40;;;9.30;69.90;;;;;;5050515;28;20505;-67
2021/04/16 12:46:34;;;;;;;6.10;3.10;;;9.20;70.20;;;;;;5050967;28;20961;-65
2021/04/16 12:48:59;;;;;;;4.87;3.03;;;9.20;70.50;;;;;;5050310;28;20409;-65
2021/04/16 12:51:25;;;;;;;5.30;3.20;;;9.10;70.00;;;;;;5050740;28;20428;-67
2021/04/16 12:53:51;;;;;;;9.20;3.30;;;9.10;71.40;;;;;;5050490;28;20830;-65
2021/04/16 12:56:20;;;;;;;4.87;3.07;;;9.10;71.50;;;;;;5050117;28;20638;-66
2021/04/16 12:58:47;;;;;;;4.33;2.77;;;9.20;70.60;;;;;;5050657;28;20189;-65
2021/04/16 13:01:28;;;;;;;2.80;2.50;;;9.40;70.00;;;;;;5050617;28;20418;-68
2021/04/16 13:03:55;;;;;;;4.33;2.40;;;9.50;68.60;;;;;;5049684;28;20508;-66
2021/04/16 13:06:33;;;;;;;4.07;2.43;;;9.70;69.50;;;;;;5049831;28;20409;-68
2021/04/16 13:09:00;;;;;;;3.57;2.23;;;9.70;67.80;;;;;;5050620;28;20452;-69
2021/04/16 13:11:27;;;;;;;2.90;1.97;;;9.80;66.40;;;;;;5050445;28;20918;-66
2021/04/16 13:13:54;;;;;;;2.50;2.17;;;9.80;63.50;;;;;;5048828;28;20449;-67
2021/04/16 13:16:20;;;;;;;4.30;2.33;;;9.90;65.10;;;;;;5050394;28;20560;-67
2021/04/16 13:18:52;;;;;;;5.13;1.90;;;10.00;64.10;;;;;;5050487;28;20175;-68
2021/04/16 13:21:28;;;;;;;5.53;2.10;;;10.10;62.30;;;;;;5051067;28;20223;-67
2021/04/16 13:23:53;;;;;;;3.00;2.07;;;10.10;61.30;;;;;;5050439;28;20178;-66
2021/04/16 13:26:20;;;;;;;2.10;1.87;;;10.20;62.80;;;;;;5050131;28;20671;-67
2021/04/16 13:28:45;;;;;;;1.80;1.60;;;10.20;62.10;;;;;;5051364;28;20182;-66
2021/04/16 13:31:18;;;;;;;3.03;1.80;;;10.10;60.60;;;;;;5052759;28;20179;-67
2021/04/16 13:33:49;;;;;;;2.10;1.90;;;10.20;63.30;;;;;;5053945;28;20202;-68
2021/04/16 13:36:20;;;;;;;3.90;1.87;;;10.20;62.20;;;;;;5054304;28;20175;-66
2021/04/16 13:38:50;;;;;;;2.17;1.60;;;10.20;61.40;;;;;;5054044;28;20693;-67
2021/04/16 13:41:18;;;;;;;4.67;2.23;;;10.20;61.70;;;;;;5053933;28;20179;-67
2021/04/16 13:43:43;;;;;;;1.93;1.80;;;10.20;61.10;;;;;;5053801;28;20183;-67
2021/04/16 13:46:15;;;;;;;1.80;1.70;;;10.20;60.30;;;;;;5053770;28;20278;-65
2021/04/16 13:48:44;;;;;;;2.03;1.60;;;10.10;62.50;;;;;;5053845;28;20213;-66
2021/04/16 13:51:09;;;;;;;2.33;1.70;;;10.00;63.80;;;;;;5053919;28;20266;-65
2021/04/16 13:53:35;;;;;;;2.23;1.50;;;9.80;63.40;;;;;;5052279;28;20298;-67
2021/04/16 13:56:01;;;;;;;3.50;2.20;;;9.80;65.50;;;;;;5053608;28;20683;-67
2021/04/16 13:58:27;;;;;;;5.00;1.90;;;9.50;66.20;;;;;;5053864;28;20179;-66
2021/04/16 14:00:58;;;;;;;3.00;2.10;;;9.50;69.00;;;;;;5052140;28;20508;-67
2021/04/16 14:03:34;;;;;;;2.93;2.07;;;9.40;69.00;;;;;;5053811;28;20171;-67
2021/04/16 14:06:28;;;;;;;2.63;1.97;;;9.30;71.30;;;;;;5049022;28;20171;-65
2021/04/16 14:09:03;;;;;;;3.13;2.30;;;9.30;69.60;;;;;;5043437;28;20418;-66
2021/04/16 14:11:31;;;;;;;5.30;1.97;;;9.30;72.30;;;;;;5053347;28;20436;-67
2021/04/16 14:14:25;;;;;;;3.07;2.20;;;9.40;71.30;;;;;;5035768;28;20417;-68
2021/04/16 14:16:51;;;;;;;3.30;2.50;;;9.40;69.70;;;;;;5053004;28;20405;-66
2021/04/16 14:19:21;;;;;;;3.13;2.23;;;9.40;70.30;;;;;;5051600;28;20490;-68
2021/04/16 14:21:50;;;;;;;2.77;2.10;;;9.40;70.10;;;;;;5053074;28;20480;-67
2021/04/16 14:24:16;;;;;;;3.53;2.20;;;9.30;70.70;;;;;;5052323;28;20798;-66
2021/04/16 14:26:43;;;;;;;2.40;2.10;;;9.40;71.20;;;;;;5053054;28;20408;-66
2021/04/16 14:29:09;;;;;;;3.90;2.30;;;9.30;71.30;;;;;;5052838;28;20410;-68
2021/04/16 14:31:41;;;;;;;3.90;1.90;;;9.20;70.40;;;;;;5051222;28;20455;-68
2021/04/16 14:34:21;;;;;;;2.63;2.00;;;9.20;72.60;;;;;;5051915;28;20187;-68
2021/04/16 14:36:46;;;;;;;2.37;2.10;;;9.10;72.60;;;;;;5035110;28;20434;-67
2021/04/16 14:39:13;;;;;;;3.80;2.27;;;9.10;73.80;;;;;;5052962;28;20468;-66
2021/04/16 14:41:39;;;;;;;3.40;2.77;;;9.10;73.90;;;;;;5052806;28;20237;-69
2021/04/16 14:44:07;;;;;;;3.10;2.73;;;9.10;74.50;;;;;;5052651;28;20410;-66
2021/04/16 14:46:33;;;;;;;4.47;2.57;;;9.20;73.70;;;;;;5052447;28;20445;-68
2021/04/16 14:48:59;;;;;;;4.27;3.20;;;9.30;72.50;;;;;;5052542;28;20420;-65
2021/04/16 14:51:28;;;;;;;7.77;4.60;;;9.30;71.60;;;;;;5051073;28;20888;-67
2021/04/16 14:53:59;;;;;;;6.10;3.33;;;9.30;72.10;;;;;;5052513;28;20198;-66
2021/04/16 14:56:25;;;;;;;5.50;3.80;;;9.40;71.30;;;;;;5048317;28;20414;-65
2021/04/16 14:59:07;;;;;;;4.30;2.33;;;9.50;72.10;;;;;;5052523;28;20424;-67
2021/04/16 15:01:34;;;;;;;4.97;2.80;;;9.50;70.10;;;;;;5051397;28;20598;-67
2021/04/16 15:04:00;;;;;;;2.83;2.50;;;9.50;71.60;;;;;;5023576;28;20891;-67
2021/04/16 15:06:29;;;;;;;2.80;2.40;;;9.60;70.00;;;;;;5050841;28;20418;-65
2021/04/16 15:09:04;;;;;;;5.03;2.70;;;9.60;68.80;;;;;;5051686;28;20592;-67
2021/04/16 15:11:44;;;;;;;3.00;2.53;;;9.50;69.00;;;;;;5051625;28;20423;-67
2021/04/16 15:14:25;;;;;;;3.03;2.17;;;9.50;69.20;;;;;;5051936;28;20414;-68
2021/04/16 15:16:51;;;;;;;4.23;2.93;;;9.50;69.20;;;;;;5050445;28;20405;-67
2021/04/16 15:19:36;;;;;;;5.23;3.23;;;9.50;69.10;;;;;;5051938;28;20489;-68
2021/04/16 15:22:06;;;;;;;2.60;2.40;;;9.40;70.00;;;;;;5051692;28;20499;-66
2021/04/16 15:24:33;;;;;;;4.50;3.13;;;9.40;69.10;;;;;;5051593;28;20444;-66